Time;durP1;ratioP1;P1;durP2;ratioP2;P2;SDS_P1;SDS_P2;PMS_P1;PMS_P2;Temp;Humidity;BMP_temperature;BMP_pressure;BME280_temperature;BME280_humidity;BME280_pressure;Samples;Min_cycle;Max_cycle;Signal;HPM_P1;HPM_P2
2022/01/01 00:02:15;;;;;;;42.47;23.60;;;;;;;;;;768301;182;919257;-63
2022/01/01 00:04:42;;;;;;;54.17;29.97;;;;;;;;;;766308;182;919069;-63
2022/01/01 00:07:07;;;;;;;55.73;32.00;;;;;;;;;;771744;182;919003;-64
2022/01/01 00:09:32;;;;;;;59.90;31.33;;;;;;;;;;764979;182;919347;-63
2022/01/01 00:11:58;;;;;;;48.63;27.43;;;;;;;;;;765474;182;918921;-63
2022/01/01 00:14:24;;;;;;;45.17;26.10;;;;;;;;;;772050;182;816321;-63
2022/01/01 00:16:50;;;;;;;41.20;22.07;;;;;;;;;;767561;183;920189;-63
2022/01/01 00:19:16;;;;;;;44.30;22.90;;;;;;;;;;766847;182;919016;-63
2022/01/01 00:21:43;;;;;;;31.90;20.23;;;;;;;;;;772440;182;826236;-63
2022/01/01 00:24:07;;;;;;;31.23;18.97;;;;;;;;;;771588;182;627258;-63
2022/01/01 00:26:33;;;;;;;25.43;16.33;;;;;;;;;;768449;179;918971;-63
2022/01/01 00:28:59;;;;;;;33.40;19.97;;;;;;;;;;769355;182;912795;-63
2022/01/01 00:31:27;;;;;;;30.27;18.40;;;;;;;;;;772525;182;816988;-62
2022/01/01 00:33:52;;;;;;;29.07;17.37;;;;;;;;;;769638;182;1129680;-63
2022/01/01 00:36:18;;;;;;;25.53;16.90;;;;;;;;;;772324;182;637191;-64
2022/01/01 00:38:44;;;;;;;25.80;15.40;;;;;;;;;;772669;182;918527;-64
2022/01/01 00:41:09;;;;;;;26.30;15.90;;;;;;;;;;767347;183;919721;-63
2022/01/01 00:43:35;;;;;;;25.33;14.63;;;;;;;;;;770046;182;908537;-63
2022/01/01 00:46:01;;;;;;;28.63;17.13;;;;;;;;;;773276;181;918707;-62
2022/01/01 00:48:27;;;;;;;31.20;19.03;;;;;;;;;;770767;182;918512;-64
2022/01/01 00:50:53;;;;;;;36.80;19.17;;;;;;;;;;764643;182;919570;-64
2022/01/01 00:53:19;;;;;;;35.67;19.20;;;;;;;;;;769843;182;912661;-63
2022/01/01 00:55:45;;;;;;;33.53;19.57;;;;;;;;;;774334;183;626335;-65
2022/01/01 00:58:10;;;;;;;32.70;19.50;;;;;;;;;;766762;182;915679;-64
2022/01/01 01:00:36;;;;;;;36.28;21.77;;;;;;;;;;768210;182;919438;-63
2022/01/01 01:03:08;;;;;;;36.37;22.73;;;;;;;;;;772239;182;918864;-64
2022/01/01 01:05:34;;;;;;;36.93;21.40;;;;;;;;;;767606;182;919963;-63
2022/01/01 01:08:00;;;;;;;32.13;20.37;;;;;;;;;;767035;183;919214;-64
2022/01/01 01:10:26;;;;;;;36.83;21.67;;;;;;;;;;768633;182;919418;-64
2022/01/01 01:12:53;;;;;;;38.23;21.00;;;;;;;;;;775532;180;917685;-63
2022/01/01 01:15:17;;;;;;;36.47;18.63;;;;;;;;;;760854;182;918362;-64
2022/01/01 01:17:45;;;;;;;36.83;20.48;;;;;;;;;;764996;182;919338;-62
2022/01/01 01:20:11;;;;;;;30.20;18.63;;;;;;;;;;770685;182;919830;-63
2022/01/01 01:22:37;;;;;;;33.43;19.17;;;;;;;;;;767842;182;919464;-65
2022/01/01 01:25:03;;;;;;;31.73;19.10;;;;;;;;;;766516;182;926315;-63
2022/01/01 01:27:29;;;;;;;34.63;19.57;;;;;;;;;;770600;182;918647;-66
2022/01/01 01:29:57;;;;;;;31.73;18.10;;;;;;;;;;769513;182;919613;-63
2022/01/01 01:32:20;;;;;;;31.50;19.40;;;;;;;;;;766100;182;903261;-64
2022/01/01 01:34:46;;;;;;;42.77;21.33;;;;;;;;;;767123;182;919438;-63
2022/01/01 01:37:12;;;;;;;38.27;20.80;;;;;;;;;;771978;180;919655;-63
2022/01/01 01:39:38;;;;;;;38.63;21.13;;;;;;;;;;764547;182;922960;-62
2022/01/01 01:42:04;;;;;;;36.17;20.73;;;;;;;;;;770593;181;918142;-63
2022/01/01 01:44:32;;;;;;;28.00;20.20;;;;;;;;;;772616;182;921390;-63
2022/01/01 01:46:56;;;;;;;42.23;21.80;;;;;;;;;;769225;182;919389;-63
2022/01/01 01:49:22;;;;;;;41.13;19.53;;;;;;;;;;767053;182;919652;-63
2022/01/01 01:51:47;;;;;;;35.43;20.50;;;;;;;;;;772660;182;916639;-64
2022/01/01 01:54:13;;;;;;;37.73;21.70;;;;;;;;;;767072;182;917042;-64
2022/01/01 01:56:39;;;;;;;34.53;19.60;;;;;;;;;;766474;183;916272;-63
2022/01/01 01:59:05;;;;;;;29.35;19.62;;;;;;;;;;768672;182;919782;-63
2022/01/01 02:01:31;;;;;;;34.07;19.17;;;;;;;;;;772825;180;919902;-64
2022/01/01 02:03:58;;;;;;;33.07;20.13;;;;;;;;;;766612;182;922695;-64
2022/01/01 02:06:23;;;;;;;31.87;18.10;;;;;;;;;;769513;182;815467;-64
2022/01/01 02:08:50;;;;;;;33.50;17.83;;;;;;;;;;773537;182;919112;-63
2022/01/01 02:11:15;;;;;;;28.03;16.10;;;;;;;;;;767812;183;918141;-63
2022/01/01 02:16:37;;;;;;;36.90;18.65;;;;;;;;;;775353;182;917739;-63
2022/01/01 02:18:55;;;;;;;33.88;16.10;;;;;;;;;;765383;182;1123367;-63
2022/01/01 02:21:21;;;;;;;33.33;19.90;;;;;;;;;;772598;180;918657;-64
2022/01/01 02:23:47;;;;;;;28.07;16.50;;;;;;;;;;766037;182;919321;-64
2022/01/01 02:26:15;;;;;;;29.03;16.83;;;;;;;;;;765478;180;918987;-64
2022/01/01 02:28:40;;;;;;;35.83;18.93;;;;;;;;;;769510;182;919421;-64
2022/01/01 02:31:06;;;;;;;27.45;16.37;;;;;;;;;;767405;182;919477;-64
2022/01/01 02:33:32;;;;;;;27.40;15.80;;;;;;;;;;763906;182;919070;-64
2022/01/01 02:35:58;;;;;;;28.33;15.90;;;;;;;;;;771978;182;918358;-64
2022/01/01 02:38:23;;;;;;;24.87;16.33;;;;;;;;;;765479;182;919934;-63
2022/01/01 02:40:49;;;;;;;24.77;15.43;;;;;;;;;;765253;183;918444;-64
2022/01/01 02:43:17;;;;;;;23.38;15.10;;;;;;;;;;766037;182;918728;-63
2022/01/01 02:45:41;;;;;;;26.47;16.10;;;;;;;;;;766836;182;918698;-64
2022/01/01 02:48:07;;;;;;;29.73;17.07;;;;;;;;;;765601;182;919615;-64
2022/01/01 02:50:33;;;;;;;23.50;15.17;;;;;;;;;;768340;182;930317;-64
2022/01/01 02:52:59;;;;;;;29.27;16.90;;;;;;;;;;769050;182;919170;-64
2022/01/01 02:55:24;;;;;;;24.42;15.55;;;;;;;;;;768353;181;918879;-64
2022/01/01 02:57:50;;;;;;;32.80;16.93;;;;;;;;;;769062;182;926951;-64
2022/01/01 03:00:16;;;;;;;22.73;14.23;;;;;;;;;;773018;182;925027;-63
2022/01/01 03:02:45;;;;;;;22.70;14.60;;;;;;;;;;768357;182;919482;-64
2022/01/01 03:05:08;;;;;;;26.43;15.17;;;;;;;;;;764942;183;919561;-64
2022/01/01 03:07:36;;;;;;;22.27;14.63;;;;;;;;;;769686;183;919036;-64
2022/01/01 03:10:01;;;;;;;24.80;14.50;;;;;;;;;;767782;182;919274;-64
2022/01/01 03:12:27;;;;;;;26.07;16.67;;;;;;;;;;771670;182;624212;-64
2022/01/01 03:14:52;;;;;;;23.13;14.73;;;;;;;;;;772194;182;626019;-64
2022/01/01 03:17:18;;;;;;;26.67;16.30;;;;;;;;;;773984;183;633732;-64
2022/01/01 03:19:44;;;;;;;27.37;15.60;;;;;;;;;;771628;182;754718;-65
2022/01/01 03:22:10;;;;;;;28.17;15.13;;;;;;;;;;763992;182;1020618;-63
2022/01/01 03:24:36;;;;;;;22.37;14.43;;;;;;;;;;770594;182;918812;-64
2022/01/01 03:27:02;;;;;;;22.73;14.90;;;;;;;;;;768165;182;919177;-64
2022/01/01 03:29:30;;;;;;;25.37;14.20;;;;;;;;;;766463;182;920839;-64
2022/01/01 03:31:53;;;;;;;23.13;14.53;;;;;;;;;;769790;182;1016082;-64
2022/01/01 03:34:21;;;;;;;30.90;14.97;;;;;;;;;;765601;183;918430;-64
2022/01/01 03:36:45;;;;;;;21.60;13.70;;;;;;;;;;765070;180;919593;-64
2022/01/01 03:39:11;;;;;;;22.13;13.03;;;;;;;;;;765307;182;919338;-64
2022/01/01 03:41:37;;;;;;;20.77;13.40;;;;;;;;;;769835;183;918959;-64
2022/01/01 03:44:03;;;;;;;24.50;13.23;;;;;;;;;;765400;182;919030;-64
2022/01/01 03:46:28;;;;;;;27.40;14.85;;;;;;;;;;765770;183;919420;-64
2022/01/01 03:48:54;;;;;;;21.17;13.47;;;;;;;;;;772857;183;918003;-64
2022/01/01 03:51:20;;;;;;;22.83;13.10;;;;;;;;;;767927;183;920093;-64
2022/01/01 03:53:46;;;;;;;26.27;13.60;;;;;;;;;;766536;182;924564;-64
2022/01/01 03:56:14;;;;;;;21.23;12.97;;;;;;;;;;771377;183;920052;-64
2022/01/01 03:58:38;;;;;;;24.87;13.27;;;;;;;;;;765898;182;918917;-64
2022/01/01 04:01:03;;;;;;;21.63;12.80;;;;;;;;;;765197;183;918154;-64
2022/01/01 04:03:29;;;;;;;22.70;12.30;;;;;;;;;;761109;183;920272;-64
2022/01/01 04:05:55;;;;;;;22.13;14.37;;;;;;;;;;762797;183;919858;-63
2022/01/01 04:08:21;;;;;;;22.03;13.50;;;;;;;;;;766626;182;920000;-64
2022/01/01 04:10:47;;;;;;;23.65;15.52;;;;;;;;;;767375;182;919628;-63
2022/01/01 04:13:13;;;;;;;23.43;13.90;;;;;;;;;;771581;182;919456;-64
2022/01/01 04:15:39;;;;;;;24.53;15.50;;;;;;;;;;764601;182;919662;-64
2022/01/01 04:18:11;;;;;;;31.43;14.60;;;;;;;;;;765051;183;918591;-64
2022/01/01 04:20:33;;;;;;;27.10;15.27;;;;;;;;;;769678;182;918736;-64
2022/01/01 04:22:59;;;;;;;26.10;14.30;;;;;;;;;;762346;182;919963;-63
2022/01/01 04:25:25;;;;;;;29.33;15.45;;;;;;;;;;767268;182;920395;-64
2022/01/01 04:27:50;;;;;;;26.40;15.70;;;;;;;;;;766006;182;919338;-63
2022/01/01 04:30:17;;;;;;;30.47;16.10;;;;;;;;;;770204;180;919113;-63
2022/01/01 04:32:43;;;;;;;30.07;14.47;;;;;;;;;;767346;182;919186;-64
2022/01/01 04:35:09;;;;;;;27.90;19.33;;;;;;;;;;766365;180;1015859;-64
2022/01/01 04:37:35;;;;;;;17.87;10.60;;;;;;;;;;771980;182;919829;-64
2022/01/01 04:40:01;;;;;;;21.97;12.50;;;;;;;;;;768986;182;919836;-63
2022/01/01 04:42:27;;;;;;;27.00;14.85;;;;;;;;;;767438;182;1020964;-64
2022/01/01 04:44:53;;;;;;;22.90;15.33;;;;;;;;;;771935;183;920310;-64
2022/01/01 04:47:18;;;;;;;25.57;16.57;;;;;;;;;;765975;182;919832;-64
2022/01/01 04:49:44;;;;;;;22.47;14.47;;;;;;;;;;768226;183;919513;-63
2022/01/01 04:52:10;;;;;;;23.83;15.13;;;;;;;;;;767658;183;920053;-63
2022/01/01 04:54:40;;;;;;;29.05;15.82;;;;;;;;;;776654;180;919445;-63
2022/01/01 04:57:02;;;;;;;24.07;14.33;;;;;;;;;;765135;182;918679;-64
2022/01/01 04:59:28;;;;;;;24.73;14.80;;;;;;;;;;764132;183;919906;-64
2022/01/01 05:01:54;;;;;;;21.47;13.63;;;;;;;;;;772477;182;919576;-64
2022/01/01 05:04:19;;;;;;;26.47;13.80;;;;;;;;;;765407;183;918717;-64
2022/01/01 05:06:49;;;;;;;26.45;14.95;;;;;;;;;;765542;183;924978;-64
2022/01/01 05:09:11;;;;;;;28.77;15.63;;;;;;;;;;772245;182;920266;-63
2022/01/01 05:11:37;;;;;;;26.00;14.20;;;;;;;;;;766188;182;919926;-64
2022/01/01 05:14:03;;;;;;;26.65;13.85;;;;;;;;;;765075;182;921458;-64
2022/01/01 05:16:29;;;;;;;21.67;14.10;;;;;;;;;;770233;182;1023427;-63
2022/01/01 05:18:55;;;;;;;22.53;13.90;;;;;;;;;;769098;182;919845;-64
2022/01/01 05:21:21;;;;;;;24.27;13.40;;;;;;;;;;767266;182;917951;-64
2022/01/01 05:23:47;;;;;;;20.97;13.10;;;;;;;;;;767457;182;918799;-64
2022/01/01 05:26:13;;;;;;;22.63;12.97;;;;;;;;;;770673;182;919244;-64
2022/01/01 05:28:39;;;;;;;22.40;13.47;;;;;;;;;;766599;183;917402;-63
2022/01/01 05:31:05;;;;;;;23.40;14.00;;;;;;;;;;766514;183;920387;-60
2022/01/01 05:33:31;;;;;;;48.90;21.57;;;;;;;;;;769431;182;907131;-64
2022/01/01 05:35:56;;;;;;;33.60;18.07;;;;;;;;;;767449;182;919272;-63
2022/01/01 05:38:22;;;;;;;27.87;15.87;;;;;;;;;;766294;182;919473;-63
2022/01/01 05:40:48;;;;;;;29.13;14.47;;;;;;;;;;773608;182;920210;-64
2022/01/01 05:43:14;;;;;;;22.10;12.93;;;;;;;;;;766091;182;920112;-64
2022/01/01 05:45:42;;;;;;;20.63;12.37;;;;;;;;;;768314;181;918968;-64
2022/01/01 05:48:06;;;;;;;17.20;11.10;;;;;;;;;;766567;183;919604;-64
2022/01/01 05:50:32;;;;;;;25.23;12.77;;;;;;;;;;773532;182;922689;-64
2022/01/01 05:52:58;;;;;;;20.40;11.60;;;;;;;;;;765824;182;919984;-62
2022/01/01 05:55:24;;;;;;;22.75;11.10;;;;;;;;;;767186;182;920142;-63
2022/01/01 05:57:50;;;;;;;21.47;10.87;;;;;;;;;;768728;183;919753;-63
2022/01/01 06:00:16;;;;;;;19.63;11.40;;;;;;;;;;765170;183;919637;-64
2022/01/01 06:02:42;;;;;;;17.87;10.50;;;;;;;;;;765649;182;918893;-64
2022/01/01 06:05:08;;;;;;;25.23;12.73;;;;;;;;;;771017;182;919241;-64
2022/01/01 06:07:33;;;;;;;16.47;9.40;;;;;;;;;;760171;183;919843;-65
2022/01/01 06:09:59;;;;;;;18.97;10.23;;;;;;;;;;761099;182;920592;-64
2022/01/01 06:12:25;;;;;;;19.08;10.25;;;;;;;;;;766797;182;919903;-64
2022/01/01 06:14:51;;;;;;;14.80;8.70;;;;;;;;;;774359;182;921078;-64
2022/01/01 06:17:17;;;;;;;16.87;10.17;;;;;;;;;;766830;182;922971;-64
2022/01/01 06:19:43;;;;;;;19.73;11.27;;;;;;;;;;762405;182;921425;-64
2022/01/01 06:22:09;;;;;;;23.03;10.40;;;;;;;;;;772110;180;931215;-63
2022/01/01 06:24:34;;;;;;;20.77;11.30;;;;;;;;;;766331;182;918352;-64
2022/01/01 06:27:00;;;;;;;18.70;11.07;;;;;;;;;;768395;182;916960;-63
2022/01/01 06:29:26;;;;;;;15.63;10.40;;;;;;;;;;771194;181;912328;-63
2022/01/01 06:31:52;;;;;;;17.23;9.80;;;;;;;;;;769140;182;915438;-63
2022/01/01 06:34:18;;;;;;;20.53;11.70;;;;;;;;;;769269;182;915345;-64
2022/01/01 06:36:44;;;;;;;23.33;11.17;;;;;;;;;;766842;182;916019;-62
2022/01/01 06:39:09;;;;;;;15.50;10.67;;;;;;;;;;771889;182;914443;-63
2022/01/01 06:41:35;;;;;;;20.87;9.80;;;;;;;;;;765740;182;1021785;-64
2022/01/01 06:44:01;;;;;;;17.10;9.83;;;;;;;;;;767790;182;919032;-64
2022/01/01 06:46:27;;;;;;;18.47;11.57;;;;;;;;;;770618;183;919062;-64
2022/01/01 06:48:53;;;;;;;19.47;9.23;;;;;;;;;;766044;182;918710;-64
2022/01/01 06:51:19;;;;;;;17.53;10.03;;;;;;;;;;769566;182;815658;-64
2022/01/01 06:53:44;;;;;;;19.27;10.50;;;;;;;;;;774163;183;627500;-63
2022/01/01 06:56:10;;;;;;;21.70;10.33;;;;;;;;;;772475;182;622035;-64
2022/01/01 06:58:36;;;;;;;21.73;11.67;;;;;;;;;;771201;182;619631;-64
2022/01/01 07:01:02;;;;;;;19.70;10.87;;;;;;;;;;770896;180;918813;-63
2022/01/01 07:03:28;;;;;;;18.80;11.07;;;;;;;;;;760459;182;2149397;-64
2022/01/01 07:05:54;;;;;;;17.43;11.03;;;;;;;;;;763430;182;920344;-64
2022/01/01 07:08:20;;;;;;;14.43;9.77;;;;;;;;;;766042;182;918775;-65
2022/01/01 07:10:45;;;;;;;20.73;10.87;;;;;;;;;;774115;182;623696;-64
2022/01/01 07:13:12;;;;;;;16.60;9.53;;;;;;;;;;767428;182;918461;-64
2022/01/01 07:15:38;;;;;;;18.10;11.70;;;;;;;;;;764730;182;918723;-64
2022/01/01 07:18:04;;;;;;;18.33;9.60;;;;;;;;;;772604;182;913860;-63
2022/01/01 07:20:29;;;;;;;16.93;9.70;;;;;;;;;;767176;182;918798;-66
2022/01/01 07:22:55;;;;;;;20.70;10.80;;;;;;;;;;766160;182;919417;-64
2022/01/01 07:25:21;;;;;;;21.95;10.60;;;;;;;;;;771388;182;918478;-64
2022/01/01 07:27:47;;;;;;;22.33;11.70;;;;;;;;;;765047;182;920297;-64
2022/01/01 07:30:13;;;;;;;18.73;9.80;;;;;;;;;;765336;182;935156;-64
2022/01/01 07:32:39;;;;;;;15.17;8.70;;;;;;;;;;766950;182;918642;-64
2022/01/01 07:35:05;;;;;;;15.30;8.97;;;;;;;;;;771250;181;919034;-64
2022/01/01 07:37:31;;;;;;;33.43;11.23;;;;;;;;;;765468;182;918691;-63
2022/01/01 07:39:57;;;;;;;15.57;9.75;;;;;;;;;;767114;182;913888;-63
2022/01/01 07:42:23;;;;;;;15.50;8.77;;;;;;;;;;773195;182;918585;-63
2022/01/01 07:44:48;;;;;;;15.00;9.83;;;;;;;;;;766132;182;918883;-63
2022/01/01 07:47:14;;;;;;;17.40;10.00;;;;;;;;;;766733;183;918777;-63
2022/01/01 07:49:42;;;;;;;16.73;9.20;;;;;;;;;;773673;182;918214;-64
2022/01/01 07:52:06;;;;;;;18.23;10.48;;;;;;;;;;767328;182;918909;-64
2022/01/01 07:54:32;;;;;;;19.77;9.80;;;;;;;;;;767549;183;918050;-64
2022/01/01 07:56:58;;;;;;;9.33;6.53;;;;;;;;;;767398;183;918078;-63
2022/01/01 07:59:24;;;;;;;16.63;8.40;;;;;;;;;;763227;184;919768;-64
2022/01/01 08:01:49;;;;;;;13.70;8.23;;;;;;;;;;759370;183;919544;-64
2022/01/01 08:04:15;;;;;;;13.53;7.90;;;;;;;;;;759685;183;919979;-64
2022/01/01 08:06:41;;;;;;;16.60;9.27;;;;;;;;;;771851;183;919454;-64
2022/01/01 08:09:07;;;;;;;15.05;9.10;;;;;;;;;;768587;182;918573;-64
2022/01/01 08:11:33;;;;;;;15.77;10.20;;;;;;;;;;763010;183;920337;-64
2022/01/01 08:13:59;;;;;;;13.40;8.93;;;;;;;;;;772802;182;917157;-63
2022/01/01 08:16:24;;;;;;;18.23;9.37;;;;;;;;;;764935;181;919352;-64
2022/01/01 08:18:50;;;;;;;16.83;9.50;;;;;;;;;;767004;182;1018706;-65
2022/01/01 08:21:16;;;;;;;15.37;9.37;;;;;;;;;;768917;180;1020201;-64
2022/01/01 08:23:42;;;;;;;15.30;8.97;;;;;;;;;;765037;182;919526;-63
2022/01/01 08:26:08;;;;;;;14.83;9.20;;;;;;;;;;765617;182;919525;-64
2022/01/01 08:28:34;;;;;;;13.62;9.65;;;;;;;;;;765893;182;917895;-63
2022/01/01 08:31:00;;;;;;;18.90;10.17;;;;;;;;;;772790;182;916541;-64
2022/01/01 08:33:25;;;;;;;16.93;10.47;;;;;;;;;;765075;183;919329;-64
2022/01/01 08:35:51;;;;;;;21.10;11.27;;;;;;;;;;766094;182;924041;-64
2022/01/01 08:38:17;;;;;;;21.00;11.73;;;;;;;;;;772003;183;919028;-64
2022/01/01 08:40:43;;;;;;;19.60;11.32;;;;;;;;;;767656;182;919252;-64
2022/01/01 08:43:09;;;;;;;22.58;12.18;;;;;;;;;;767240;182;918660;-64
2022/01/01 08:45:35;;;;;;;21.20;12.60;;;;;;;;;;771370;182;919323;-64
2022/01/01 08:48:00;;;;;;;13.67;9.90;;;;;;;;;;767480;182;918668;-64
2022/01/01 08:50:26;;;;;;;18.80;11.00;;;;;;;;;;764549;182;1011018;-64
2022/01/01 08:52:52;;;;;;;17.05;11.65;;;;;;;;;;769038;180;918636;-63
2022/01/01 08:55:18;;;;;;;18.20;10.57;;;;;;;;;;768344;183;924242;-63
2022/01/01 08:57:44;;;;;;;19.20;10.07;;;;;;;;;;768315;182;919091;-64
2022/01/01 09:00:10;;;;;;;15.67;9.20;;;;;;;;;;767924;181;919167;-64
2022/01/01 09:02:38;;;;;;;15.67;10.33;;;;;;;;;;772992;182;922571;-64
2022/01/01 09:05:04;;;;;;;16.23;11.20;;;;;;;;;;766553;179;918870;-64
2022/01/01 09:07:30;;;;;;;14.75;11.20;;;;;;;;;;765255;182;920767;-64
2022/01/01 09:09:56;;;;;;;14.67;9.13;;;;;;;;;;770780;182;919132;-63
2022/01/01 09:12:22;;;;;;;17.27;10.20;;;;;;;;;;766703;183;921083;-64
2022/01/01 09:14:48;;;;;;;13.60;9.10;;;;;;;;;;765095;182;918792;-63
2022/01/01 09:17:13;;;;;;;19.03;8.77;;;;;;;;;;765976;182;919217;-63
2022/01/01 09:19:39;;;;;;;15.37;9.33;;;;;;;;;;770568;182;921161;-63
2022/01/01 09:22:05;;;;;;;15.30;8.70;;;;;;;;;;765829;183;918789;-63
2022/01/01 09:24:31;;;;;;;16.87;9.50;;;;;;;;;;764584;183;918195;-63
2022/01/01 09:26:57;;;;;;;17.00;11.57;;;;;;;;;;774819;182;816828;-64
2022/01/01 09:29:23;;;;;;;16.20;9.40;;;;;;;;;;766549;182;800631;-64
2022/01/01 09:31:48;;;;;;;15.87;8.90;;;;;;;;;;765736;182;926015;-64
2022/01/01 09:34:14;;;;;;;14.75;11.30;;;;;;;;;;767716;182;918235;-64
2022/01/01 09:36:40;;;;;;;17.20;9.47;;;;;;;;;;765654;182;918957;-64
2022/01/01 09:39:06;;;;;;;13.03;9.17;;;;;;;;;;765773;182;919267;-64
2022/01/01 09:41:32;;;;;;;16.07;9.47;;;;;;;;;;766161;182;919354;-64
2022/01/01 09:43:58;;;;;;;12.57;8.50;;;;;;;;;;759206;184;919569;-63
2022/01/01 09:46:25;;;;;;;13.60;9.32;;;;;;;;;;764889;182;918284;-64
2022/01/01 09:48:49;;;;;;;8.90;7.07;;;;;;;;;;765386;182;919199;-63
2022/01/01 09:51:15;;;;;;;13.60;7.17;;;;;;;;;;771002;180;918884;-63
2022/01/01 09:53:41;;;;;;;10.90;6.97;;;;;;;;;;765078;182;918612;-65
2022/01/01 09:56:07;;;;;;;12.53;7.53;;;;;;;;;;768051;182;918925;-64
2022/01/01 09:58:33;;;;;;;9.35;6.40;;;;;;;;;;771673;182;917984;-64
2022/01/01 10:00:59;;;;;;;9.60;6.57;;;;;;;;;;765525;182;918762;-64
2022/01/01 10:03:27;;;;;;;7.93;6.23;;;;;;;;;;768798;181;919035;-64
2022/01/01 10:05:59;;;;;;;8.00;5.50;;;;;;;;;;772450;182;622888;-65
2022/01/01 10:08:25;;;;;;;8.20;5.93;;;;;;;;;;762761;184;918977;-64
2022/01/01 10:10:51;;;;;;;7.60;5.50;;;;;;;;;;763528;179;919386;-65
2022/01/01 10:13:16;;;;;;;7.37;5.40;;;;;;;;;;768119;182;921897;-65
2022/01/01 10:15:42;;;;;;;7.07;5.20;;;;;;;;;;774122;182;919707;-64
2022/01/01 10:18:08;;;;;;;12.03;5.73;;;;;;;;;;767004;182;919840;-64
2022/01/01 10:20:35;;;;;;;7.60;5.27;;;;;;;;;;769798;182;918288;-64
2022/01/01 10:23:10;;;;;;;6.93;4.40;;;;;;;;;;766746;182;919785;-64
2022/01/01 10:28:08;;;;;;;8.05;5.85;;;;;;;;;;764701;182;919241;-64
2022/01/01 10:30:36;;;;;;;7.10;4.63;;;;;;;;;;767835;182;919028;-64
2022/01/01 10:33:05;;;;;;;8.77;4.97;;;;;;;;;;770807;182;758192;-65
2022/01/01 10:35:34;;;;;;;8.30;5.13;;;;;;;;;;775356;182;617142;-65
2022/01/01 10:37:59;;;;;;;7.90;5.37;;;;;;;;;;770260;183;629756;-65
2022/01/01 10:40:26;;;;;;;8.80;5.23;;;;;;;;;;767998;182;913449;-64
2022/01/01 10:42:51;;;;;;;6.00;4.80;;;;;;;;;;764929;182;915142;-64
2022/01/01 10:45:17;;;;;;;9.47;5.03;;;;;;;;;;768201;183;916943;-65
2022/01/01 10:47:43;;;;;;;6.93;5.33;;;;;;;;;;765639;182;918963;-65
2022/01/01 10:50:15;;;;;;;9.93;5.30;;;;;;;;;;765711;182;919695;-64
2022/01/01 10:52:45;;;;;;;9.23;5.77;;;;;;;;;;770109;183;918857;-64
2022/01/01 10:55:06;;;;;;;8.03;5.80;;;;;;;;;;765240;182;919553;-64
2022/01/01 10:57:34;;;;;;;9.20;5.03;;;;;;;;;;765322;182;919797;-65
2022/01/01 11:00:08;;;;;;;10.70;6.20;;;;;;;;;;766312;180;1025830;-65
2022/01/01 11:02:34;;;;;;;10.50;5.80;;;;;;;;;;769761;182;919017;-65
2022/01/01 11:05:00;;;;;;;10.40;5.67;;;;;;;;;;766864;182;918761;-65
2022/01/01 11:07:26;;;;;;;6.53;4.97;;;;;;;;;;770679;182;918538;-64
2022/01/01 11:09:52;;;;;;;5.80;4.37;;;;;;;;;;770221;183;644242;-64
2022/01/01 11:12:20;;;;;;;6.30;5.10;;;;;;;;;;753758;184;918971;-63
2022/01/01 11:14:44;;;;;;;7.27;5.10;;;;;;;;;;763023;182;920676;-64
2022/01/01 11:17:10;;;;;;;5.80;5.00;;;;;;;;;;768718;182;937723;-64
2022/01/01 11:19:36;;;;;;;8.05;4.00;;;;;;;;;;773284;182;920102;-65
2022/01/01 11:22:01;;;;;;;6.93;4.90;;;;;;;;;;767946;182;921061;-64
2022/01/01 11:24:28;;;;;;;5.10;4.60;;;;;;;;;;770094;182;918618;-64
2022/01/01 11:26:53;;;;;;;5.10;3.87;;;;;;;;;;773114;182;919786;-64
2022/01/01 11:29:19;;;;;;;6.80;5.63;;;;;;;;;;767177;182;920082;-63
2022/01/01 11:31:46;;;;;;;5.93;4.20;;;;;;;;;;766075;182;960993;-64
2022/01/01 11:34:11;;;;;;;5.40;4.23;;;;;;;;;;771260;182;917887;-64
2022/01/01 11:36:37;;;;;;;8.43;4.93;;;;;;;;;;765489;182;919996;-64
2022/01/01 11:39:02;;;;;;;10.30;7.53;;;;;;;;;;765845;182;920771;-64
2022/01/01 11:41:28;;;;;;;11.13;6.27;;;;;;;;;;764264;181;1018245;-63
2022/01/01 11:43:55;;;;;;;10.68;5.30;;;;;;;;;;769832;183;918120;-64
2022/01/01 11:46:21;;;;;;;5.80;4.13;;;;;;;;;;764677;182;919009;-64
2022/01/01 11:48:48;;;;;;;8.17;6.03;;;;;;;;;;767279;182;919294;-64
2022/01/01 11:51:21;;;;;;;8.17;5.83;;;;;;;;;;771291;182;1018711;-64
2022/01/01 11:53:52;;;;;;;9.23;5.10;;;;;;;;;;769911;183;917257;-65
2022/01/01 11:56:18;;;;;;;10.97;5.40;;;;;;;;;;769148;182;638546;-64
2022/01/01 11:58:45;;;;;;;7.07;5.30;;;;;;;;;;770048;182;636737;-65
2022/01/01 12:01:11;;;;;;;6.53;4.93;;;;;;;;;;770942;182;920306;-64
2022/01/01 12:03:53;;;;;;;7.87;5.60;;;;;;;;;;766232;182;921091;-64
2022/01/01 12:06:19;;;;;;;6.83;5.13;;;;;;;;;;767257;182;915624;-64
2022/01/01 12:08:46;;;;;;;8.75;5.00;;;;;;;;;;766467;183;914723;-64
2022/01/01 12:11:11;;;;;;;8.43;6.37;;;;;;;;;;766580;183;918274;-63
2022/01/01 12:13:38;;;;;;;8.13;5.50;;;;;;;;;;769259;182;919518;-63
2022/01/01 12:16:03;;;;;;;7.80;5.87;;;;;;;;;;766262;182;920434;-63
2022/01/01 12:18:29;;;;;;;6.57;5.20;;;;;;;;;;765633;182;919601;-63
2022/01/01 12:21:01;;;;;;;8.00;5.25;;;;;;;;;;768838;182;916101;-63
2022/01/01 12:23:24;;;;;;;8.83;5.73;;;;;;;;;;767028;182;920884;-63
2022/01/01 12:25:50;;;;;;;7.77;5.83;;;;;;;;;;764944;182;922269;-63
2022/01/01 12:28:18;;;;;;;10.00;5.23;;;;;;;;;;773076;181;914582;-63
2022/01/01 12:30:45;;;;;;;12.73;6.20;;;;;;;;;;770218;181;888444;-63
2022/01/01 12:33:11;;;;;;;7.28;5.18;;;;;;;;;;766503;182;913861;-63
2022/01/01 12:35:38;;;;;;;6.65;5.22;;;;;;;;;;766904;182;1016356;-63
2022/01/01 12:38:07;;;;;;;6.67;5.10;;;;;;;;;;770840;183;916408;-63
2022/01/01 12:40:32;;;;;;;9.73;5.37;;;;;;;;;;767336;182;1013326;-63
2022/01/01 12:42:58;;;;;;;7.20;4.77;;;;;;;;;;767051;182;912346;-64
2022/01/01 12:45:25;;;;;;;9.95;4.90;;;;;;;;;;769732;182;1013837;-63
2022/01/01 12:47:50;;;;;;;6.13;5.03;;;;;;;;;;764413;183;1124726;-63
2022/01/01 12:50:16;;;;;;;7.40;5.77;;;;;;;;;;764217;182;928306;-64
2022/01/01 12:52:42;;;;;;;6.73;5.10;;;;;;;;;;766117;182;920560;-63
2022/01/01 12:55:10;;;;;;;6.90;5.30;;;;;;;;;;768540;182;1566935;-63
2022/01/01 12:57:35;;;;;;;8.37;5.97;;;;;;;;;;768586;182;918143;-63
2022/01/01 13:00:07;;;;;;;7.80;6.47;;;;;;;;;;765529;182;1022124;-63
2022/01/01 13:02:32;;;;;;;7.20;4.50;;;;;;;;;;765858;182;918853;-62
2022/01/01 13:04:58;;;;;;;9.23;5.10;;;;;;;;;;767825;182;918910;-64
2022/01/01 13:07:25;;;;;;;13.10;5.23;;;;;;;;;;768025;182;918658;-64
2022/01/01 13:09:51;;;;;;;8.00;5.63;;;;;;;;;;765033;182;918687;-64
2022/01/01 13:12:18;;;;;;;8.93;5.80;;;;;;;;;;772863;182;918117;-64
2022/01/01 13:14:43;;;;;;;7.90;6.57;;;;;;;;;;765773;182;919069;-64
2022/01/01 13:17:09;;;;;;;10.80;6.53;;;;;;;;;;766810;181;919485;-63
2022/01/01 13:19:34;;;;;;;6.93;5.63;;;;;;;;;;769893;182;919947;-64
2022/01/01 13:22:00;;;;;;;6.17;5.40;;;;;;;;;;766044;182;916971;-64
2022/01/01 13:24:26;;;;;;;8.67;6.07;;;;;;;;;;765865;182;919250;-64
2022/01/01 13:26:54;;;;;;;10.93;6.28;;;;;;;;;;767792;180;918976;-61
2022/01/01 13:29:20;;;;;;;11.73;6.30;;;;;;;;;;773177;180;918842;-64
2022/01/01 13:31:45;;;;;;;7.13;6.03;;;;;;;;;;764169;182;919691;-64
2022/01/01 13:34:12;;;;;;;9.68;5.43;;;;;;;;;;763352;182;920066;-64
2022/01/01 13:36:38;;;;;;;9.00;5.70;;;;;;;;;;771018;182;918789;-64
2022/01/01 13:39:04;;;;;;;7.90;6.70;;;;;;;;;;769074;182;920181;-63
2022/01/01 13:41:31;;;;;;;8.83;5.80;;;;;;;;;;766310;182;1024606;-63
2022/01/01 13:43:57;;;;;;;12.83;5.67;;;;;;;;;;772973;182;918844;-64
2022/01/01 13:46:23;;;;;;;10.40;6.73;;;;;;;;;;764254;182;926504;-64
2022/01/01 13:48:49;;;;;;;9.27;5.97;;;;;;;;;;768250;182;917034;-64
2022/01/01 13:51:14;;;;;;;7.43;5.23;;;;;;;;;;767532;183;918998;-63
2022/01/01 13:53:42;;;;;;;8.67;5.50;;;;;;;;;;767298;180;918980;-64
2022/01/01 13:56:08;;;;;;;7.75;6.15;;;;;;;;;;763889;182;919241;-63
2022/01/01 13:58:38;;;;;;;12.93;5.63;;;;;;;;;;765536;183;919569;-64
2022/01/01 14:01:04;;;;;;;6.57;5.10;;;;;;;;;;769348;182;930307;-64
2022/01/01 14:03:30;;;;;;;9.07;5.90;;;;;;;;;;763926;182;919522;-64
2022/01/01 14:05:56;;;;;;;9.90;5.73;;;;;;;;;;768165;182;919664;-64
2022/01/01 14:08:22;;;;;;;15.05;6.72;;;;;;;;;;764708;182;919795;-63
2022/01/01 14:10:51;;;;;;;7.10;5.67;;;;;;;;;;757165;183;919690;-64